createdAt,value
2018-03-02T00:00:23.406Z,-6.90
2018-03-02T00:02:51.553Z,-6.90
2018-03-02T00:05:20.507Z,-6.90
2018-03-02T00:07:48.653Z,-6.90
2018-03-02T00:10:17.736Z,-6.90
2018-03-02T00:12:45.865Z,-6.90
2018-03-02T00:15:17.084Z,-6.90
2018-03-02T00:17:45.234Z,-6.90
2018-03-02T00:20:13.392Z,-6.90
2018-03-02T00:22:41.528Z,-7.00
2018-03-02T00:25:09.694Z,-7.00
2018-03-02T00:27:37.829Z,-7.10
2018-03-02T00:30:05.977Z,-7.20
2018-03-02T00:32:34.874Z,-7.10
2018-03-02T00:35:03.815Z,-7.10
2018-03-02T00:37:31.944Z,-7.10
2018-03-02T00:40:01.142Z,-7.00
2018-03-02T00:42:29.277Z,-6.90
2018-03-02T00:44:57.896Z,-6.90
2018-03-02T00:47:26.028Z,-6.90
2018-03-02T00:49:54.674Z,-7.10
2018-03-02T00:52:22.800Z,-7.30
2018-03-02T00:54:50.944Z,-7.10
2018-03-02T00:57:19.537Z,-7.00
2018-03-02T00:59:47.714Z,-6.90
2018-03-02T01:02:17.610Z,-6.90
2018-03-02T01:04:48.073Z,-7.00
2018-03-02T01:07:18.469Z,-7.20
2018-03-02T01:09:46.623Z,-7.20
2018-03-02T01:12:14.765Z,-7.00
2018-03-02T01:14:43.676Z,-6.90
2018-03-02T01:17:11.799Z,-6.90
2018-03-02T01:19:41.107Z,-7.00
2018-03-02T01:22:10.698Z,-7.00
2018-03-02T01:24:39.244Z,-7.00
2018-03-02T01:27:08.703Z,-7.00
2018-03-02T01:29:38.268Z,-6.90
2018-03-02T01:32:07.776Z,-6.80
2018-03-02T01:34:37.332Z,-6.90
2018-03-02T01:37:06.539Z,-7.00
2018-03-02T01:39:36.917Z,-7.00
2018-03-02T01:42:05.041Z,-7.10
2018-03-02T01:44:33.977Z,-7.30
2018-03-02T01:47:03.342Z,-7.30
2018-03-02T01:49:32.250Z,-7.20
2018-03-02T01:52:00.404Z,-7.20
2018-03-02T01:54:29.319Z,-7.00
2018-03-02T01:56:58.919Z,-7.10
2018-03-02T01:59:27.136Z,-6.90
2018-03-02T02:01:55.290Z,-6.90
2018-03-02T02:04:23.450Z,-7.10
2018-03-02T02:06:51.608Z,-7.10
2018-03-02T02:09:21.056Z,-7.00
2018-03-02T02:11:49.216Z,-7.10
2018-03-02T02:14:17.367Z,-7.10
2018-03-02T02:16:45.480Z,-7.10
2018-03-02T02:19:15.830Z,-7.20
2018-03-02T02:21:45.417Z,-7.20
2018-03-02T02:24:13.559Z,-7.20
2018-03-02T02:26:41.719Z,-7.10
2018-03-02T02:29:09.890Z,-7.30
2018-03-02T02:31:38.042Z,-7.30
2018-03-02T02:34:06.953Z,-7.20
2018-03-02T02:36:35.094Z,-7.20
2018-03-02T02:39:03.731Z,-7.20
2018-03-02T02:41:31.897Z,-7.40
2018-03-02T02:44:00.023Z,-7.30
2018-03-02T02:46:28.187Z,-7.20
2018-03-02T02:48:56.657Z,-7.30
2018-03-02T02:51:24.835Z,-7.10
2018-03-02T02:53:56.623Z,-7.20
2018-03-02T02:56:25.541Z,-7.40
2018-03-02T02:58:54.008Z,-7.40
2018-03-02T03:01:22.931Z,-7.60
2018-03-02T03:03:51.101Z,-7.60
2018-03-02T03:06:19.246Z,-7.60
2018-03-02T03:08:49.319Z,-7.60
2018-03-02T03:11:18.713Z,-7.60
2018-03-02T03:13:46.830Z,-7.70
2018-03-02T03:16:16.679Z,-7.80
2018-03-02T03:18:44.835Z,-7.80
2018-03-02T03:21:13.754Z,-7.60
2018-03-02T03:23:42.265Z,-7.70
2018-03-02T03:26:10.412Z,-7.70
2018-03-02T03:28:38.542Z,-7.60
2018-03-02T03:31:08.674Z,-7.70
2018-03-02T03:33:36.812Z,-7.80
2018-03-02T03:36:04.983Z,-7.70
2018-03-02T03:38:33.102Z,-7.50
2018-03-02T03:41:03.544Z,-7.60
2018-03-02T03:43:31.672Z,-7.60
2018-03-02T03:46:01.795Z,-7.70
2018-03-02T03:48:30.709Z,-7.70
2018-03-02T03:50:58.848Z,-7.70
2018-03-02T03:53:26.959Z,-7.60
2018-03-02T03:55:55.110Z,-7.60
2018-03-02T03:58:23.983Z,-7.70
2018-03-02T04:00:52.160Z,-7.70
2018-03-02T04:03:20.770Z,-7.90
2018-03-02T04:05:49.678Z,-7.90
2018-03-02T04:08:18.954Z,-7.90
2018-03-02T04:10:49.171Z,-7.90
2018-03-02T04:13:18.065Z,-7.90
2018-03-02T04:15:46.973Z,-8.00
2018-03-02T04:18:15.092Z,-8.00
2018-03-02T04:20:43.744Z,-8.00
2018-03-02T04:23:11.850Z,-8.10
2018-03-02T04:25:40.003Z,-8.20
2018-03-02T04:28:08.619Z,-8.20
2018-03-02T04:30:36.872Z,-8.00
2018-03-02T04:33:05.818Z,-8.00
2018-03-02T04:35:35.128Z,-8.00
2018-03-02T04:38:03.288Z,-7.90
2018-03-02T04:40:32.201Z,-8.00
2018-03-02T04:43:00.971Z,-8.00
2018-03-02T04:45:29.881Z,-8.20
2018-03-02T04:47:59.330Z,-8.20
2018-03-02T04:50:27.499Z,-8.30
2018-03-02T04:52:57.916Z,-8.30
2018-03-02T04:55:26.058Z,-8.20
2018-03-02T04:57:55.375Z,-8.20
2018-03-02T05:00:23.525Z,-8.30
2018-03-02T05:02:51.659Z,-8.20
2018-03-02T05:05:19.818Z,-8.20
2018-03-02T05:07:47.966Z,-8.30
2018-03-02T05:10:16.203Z,-8.50
2018-03-02T05:12:45.915Z,-8.50
2018-03-02T05:15:15.908Z,-8.50
2018-03-02T05:17:44.578Z,-8.60
2018-03-02T05:20:13.303Z,-8.60
2018-03-02T05:22:45.018Z,-8.80
2018-03-02T05:25:14.284Z,-8.80
2018-03-02T05:27:42.422Z,-8.60
2018-03-02T05:30:10.540Z,-8.60
2018-03-02T05:32:38.694Z,-8.60
2018-03-02T05:35:06.821Z,-8.60
2018-03-02T05:37:36.900Z,-8.60
2018-03-02T05:40:05.041Z,-8.40
2018-03-02T05:42:33.220Z,-8.30
2018-03-02T05:45:02.144Z,-8.70
2018-03-02T05:47:30.902Z,-8.70
2018-03-02T05:49:59.070Z,-8.80
2018-03-02T05:52:29.197Z,-8.90
2018-03-02T05:54:58.083Z,-8.80
2018-03-02T05:57:26.997Z,-8.70
2018-03-02T05:59:56.278Z,-8.80
2018-03-02T06:02:25.217Z,-8.60
2018-03-02T06:04:54.131Z,-8.60
2018-03-02T06:07:22.306Z,-8.60
2018-03-02T06:09:50.436Z,-8.50
2018-03-02T06:12:19.502Z,-8.70
2018-03-02T06:14:48.411Z,-8.30
2018-03-02T06:17:16.584Z,-8.30
2018-03-02T06:19:47.231Z,-8.20
2018-03-02T06:22:15.437Z,-8.10
2018-03-02T06:24:43.564Z,-7.80
2018-03-02T06:27:11.707Z,-7.60
2018-03-02T06:29:39.840Z,-7.40
2018-03-02T06:32:07.984Z,-7.30
2018-03-02T06:34:36.104Z,-7.10
2018-03-02T06:37:04.301Z,-6.90
2018-03-02T06:39:32.460Z,-6.80
2018-03-02T06:42:00.630Z,-6.70
2018-03-02T06:44:28.770Z,-6.70
2018-03-02T06:46:56.945Z,-6.80
2018-03-02T06:49:25.117Z,-6.60
2018-03-02T06:51:54.329Z,-6.60
2018-03-02T06:54:22.483Z,-6.40
2018-03-02T06:56:50.678Z,-6.30
2018-03-02T06:59:18.817Z,-6.10
2018-03-02T07:01:48.065Z,-5.90
2018-03-02T07:04:16.196Z,-5.70
2018-03-02T07:06:45.064Z,-5.30
2018-03-02T07:09:13.968Z,-4.90
2018-03-02T07:11:42.139Z,-4.90
2018-03-02T07:14:11.026Z,-4.30
2018-03-02T07:16:39.949Z,-3.90
2018-03-02T07:19:08.085Z,-4.00
2018-03-02T07:21:36.994Z,-3.30
2018-03-02T07:24:05.111Z,-3.30
2018-03-02T07:26:33.286Z,-2.80
2018-03-02T07:29:01.848Z,-2.60
2018-03-02T07:31:30.001Z,-2.90
2018-03-02T07:33:58.130Z,-3.10
2018-03-02T07:36:26.331Z,-2.40
2018-03-02T07:38:55.238Z,-2.50
2018-03-02T07:41:23.401Z,-2.50
2018-03-02T07:43:52.040Z,-2.70
2018-03-02T07:46:21.867Z,-2.80
2018-03-02T07:48:49.987Z,-3.20
2018-03-02T07:51:18.723Z,-3.40
2018-03-02T07:53:46.850Z,-3.00
2018-03-02T07:56:15.019Z,-2.50
2018-03-02T07:58:43.148Z,-2.70
2018-03-02T08:01:11.308Z,-1.30
2018-03-02T08:03:39.449Z,-0.60
2018-03-02T08:06:07.555Z,-0.90
2018-03-02T08:08:35.719Z,-0.70
2018-03-02T08:11:03.834Z,-0.40
2018-03-02T08:13:32.758Z,1.90
2018-03-02T08:16:00.895Z,1.80
2018-03-02T08:18:29.050Z,3.00
2018-03-02T08:20:57.178Z,3.30
2018-03-02T08:23:26.920Z,2.00
2018-03-02T08:25:55.031Z,2.00
2018-03-02T08:28:23.937Z,1.60
2018-03-02T08:30:52.828Z,1.80
2018-03-02T08:33:20.988Z,1.80
2018-03-02T08:35:49.871Z,0.60
2018-03-02T08:38:18.602Z,0.60
2018-03-02T08:40:46.865Z,-0.60
2018-03-02T08:43:15.024Z,-0.70
2018-03-02T08:45:44.350Z,-2.00
2018-03-02T08:48:12.741Z,-2.10
2018-03-02T08:50:40.872Z,-2.00
2018-03-02T08:53:10.872Z,-1.10
2018-03-02T08:55:38.998Z,-1.10
2018-03-02T08:58:07.152Z,-0.10
2018-03-02T09:00:35.281Z,0.50
2018-03-02T09:03:03.446Z,0.90
2018-03-02T09:05:31.618Z,0.80
2018-03-02T09:08:00.326Z,1.20
2018-03-02T09:10:28.445Z,1.80
2018-03-02T09:12:56.609Z,1.60
2018-03-02T09:15:24.781Z,1.60
2018-03-02T09:17:52.937Z,1.60
2018-03-02T09:20:21.832Z,0.30
2018-03-02T09:22:50.747Z,0.60
2018-03-02T09:25:19.729Z,0.70
2018-03-02T09:27:49.111Z,0.70
2018-03-02T09:30:17.231Z,0.40
2018-03-02T09:32:47.935Z,-0.10
2018-03-02T09:35:16.503Z,0.10
2018-03-02T09:37:46.238Z,-0.40
2018-03-02T09:40:14.396Z,-0.40
2018-03-02T09:42:43.348Z,0.00
2018-03-02T09:45:11.502Z,0.00
2018-03-02T09:47:39.647Z,-0.50
2018-03-02T09:50:07.788Z,-0.50
2018-03-02T09:52:35.953Z,-0.70
2018-03-02T09:55:04.120Z,-0.60
2018-03-02T09:57:32.260Z,-0.50
2018-03-02T10:00:00.391Z,-0.90
2018-03-02T10:02:29.293Z,-0.90
2018-03-02T10:04:58.176Z,-0.80
2018-03-02T10:07:27.095Z,-0.70
2018-03-02T10:09:55.651Z,-0.70
2018-03-02T10:12:24.594Z,0.00
2018-03-02T10:14:52.707Z,-0.10
2018-03-02T10:17:20.866Z,-1.00
2018-03-02T10:19:48.996Z,-1.20
2018-03-02T10:22:17.147Z,-2.00
2018-03-02T10:24:46.033Z,-2.80
2018-03-02T10:27:14.950Z,-3.00
2018-03-02T10:29:43.527Z,-3.10
2018-03-02T10:32:11.694Z,-3.10
2018-03-02T10:34:39.857Z,-3.10
2018-03-02T10:37:08.780Z,-3.50
2018-03-02T10:39:36.906Z,-3.50
2018-03-02T10:42:05.055Z,-3.50
2018-03-02T10:44:33.332Z,-3.50
2018-03-02T10:47:01.496Z,-3.70
2018-03-02T10:49:32.830Z,-3.80
2018-03-02T10:52:00.946Z,-3.90
2018-03-02T10:54:29.093Z,-3.70
2018-03-02T10:56:57.225Z,-3.70
2018-03-02T10:59:26.135Z,-3.70
2018-03-02T11:01:54.276Z,-3.70
2018-03-02T11:04:38.984Z,-3.60
2018-03-02T11:07:07.105Z,-3.60
2018-03-02T11:09:36.030Z,-3.70
2018-03-02T11:12:04.157Z,-3.70
2018-03-02T11:14:32.311Z,-3.70
2018-03-02T11:17:00.509Z,-3.70
2018-03-02T11:19:28.674Z,-3.70
2018-03-02T11:21:56.807Z,-3.70
2018-03-02T11:24:24.968Z,-3.60
2018-03-02T11:26:53.098Z,-3.50
2018-03-02T11:29:21.739Z,-3.50
2018-03-02T11:31:50.893Z,-3.40
2018-03-02T11:34:19.041Z,-3.30
2018-03-02T11:36:47.177Z,-3.20
2018-03-02T11:39:15.330Z,-3.00
2018-03-02T11:41:44.269Z,-3.10
2018-03-02T11:44:12.441Z,-3.10
2018-03-02T11:46:40.565Z,-3.20
2018-03-02T11:49:09.481Z,-3.40
2018-03-02T11:51:37.613Z,-3.50
2018-03-02T11:54:05.753Z,-3.50
2018-03-02T11:56:33.874Z,-3.50
2018-03-02T11:59:02.785Z,-3.50
2018-03-02T12:01:30.919Z,-3.50
2018-03-02T12:03:59.070Z,-3.50
2018-03-02T12:06:27.241Z,-3.50
2018-03-02T12:08:55.393Z,-3.40
2018-03-02T12:11:24.640Z,-3.40
2018-03-02T12:13:52.781Z,-3.40
2018-03-02T12:16:20.919Z,-3.50
2018-03-02T12:18:49.075Z,-3.40
2018-03-02T12:21:18.277Z,-3.30
2018-03-02T12:23:47.202Z,-3.10
2018-03-02T12:26:15.319Z,-3.10
2018-03-02T12:28:44.435Z,-2.90
2018-03-02T12:31:12.569Z,-2.70
2018-03-02T12:33:40.714Z,-2.60
2018-03-02T12:36:08.845Z,-2.60
2018-03-02T12:38:36.998Z,-2.50
2018-03-02T12:41:05.145Z,-2.60
2018-03-02T12:43:33.304Z,-2.80
2018-03-02T12:46:01.438Z,-2.90
2018-03-02T12:48:29.593Z,-2.80
2018-03-02T12:50:57.718Z,-2.90
2018-03-02T12:53:25.873Z,-2.70
2018-03-02T12:55:54.764Z,-2.60
2018-03-02T12:58:22.918Z,-2.70
2018-03-02T13:00:51.060Z,-2.70
2018-03-02T13:03:19.653Z,-2.60
2018-03-02T13:05:47.785Z,-2.50
2018-03-02T13:08:15.938Z,-2.40
2018-03-02T13:10:44.091Z,-2.40
2018-03-02T13:13:12.253Z,-2.40
2018-03-02T13:15:41.153Z,-2.40
2018-03-02T13:18:10.191Z,-2.40
2018-03-02T13:20:38.385Z,-2.50
2018-03-02T13:23:06.509Z,-2.50
2018-03-02T13:25:36.159Z,-2.50
2018-03-02T13:28:16.258Z,-2.50
2018-03-02T13:30:44.404Z,-2.50
2018-03-02T13:33:26.480Z,-2.50
2018-03-02T13:35:54.619Z,-2.40
2018-03-02T13:38:22.772Z,-2.30
2018-03-02T13:41:02.886Z,-2.30
2018-03-02T13:43:31.082Z,-2.20
2018-03-02T13:45:59.206Z,-2.20
2018-03-02T13:48:40.116Z,-2.10
2018-03-02T13:51:08.230Z,-2.10
2018-03-02T13:53:37.435Z,-2.00
2018-03-02T13:56:05.980Z,-1.90
2018-03-02T13:58:34.103Z,-1.80
2018-03-02T14:01:02.240Z,-1.70
2018-03-02T14:03:42.066Z,-1.70
2018-03-02T14:06:10.230Z,-1.60
2018-03-02T14:08:38.350Z,-1.60
2018-03-02T14:11:06.501Z,-1.60
2018-03-02T14:13:34.615Z,-1.80
2018-03-02T14:16:02.774Z,-1.80
2018-03-02T14:18:30.917Z,-1.90
2018-03-02T14:20:59.074Z,-1.90
2018-03-02T14:23:28.342Z,-1.90
2018-03-02T14:25:56.500Z,-1.90
2018-03-02T14:28:24.629Z,-1.90
2018-03-02T14:30:52.764Z,-1.90
2018-03-02T14:33:21.655Z,-2.00
2018-03-02T14:35:50.577Z,-1.90
2018-03-02T14:38:18.708Z,-1.90
2018-03-02T14:40:46.860Z,-1.90
2018-03-02T14:43:14.976Z,-1.90
2018-03-02T14:45:43.884Z,-1.90
2018-03-02T14:48:12.000Z,-1.90
2018-03-02T14:50:40.213Z,-1.80
2018-03-02T14:53:08.304Z,-1.90
2018-03-02T14:55:36.451Z,-2.00
2018-03-02T14:58:05.361Z,-1.90
2018-03-02T15:00:33.588Z,-1.90
2018-03-02T15:03:01.720Z,-1.80
2018-03-02T15:05:29.922Z,-1.80
2018-03-02T15:07:58.031Z,-1.80
2018-03-02T15:10:26.174Z,-1.80
2018-03-02T15:12:54.296Z,-1.80
2018-03-02T15:15:23.212Z,-1.80
2018-03-02T15:17:51.335Z,-1.80
2018-03-02T15:20:20.266Z,-1.70
2018-03-02T15:22:48.412Z,-1.70
2018-03-02T15:25:17.330Z,-1.80
2018-03-02T15:27:45.458Z,-1.80
2018-03-02T15:30:13.614Z,-1.80
2018-03-02T15:32:42.964Z,-1.80
2018-03-02T15:35:11.918Z,-1.70
2018-03-02T15:37:40.054Z,-1.80
2018-03-02T15:40:08.202Z,-1.80
2018-03-02T15:42:37.122Z,-2.00
2018-03-02T15:45:05.265Z,-2.00
2018-03-02T15:47:34.177Z,-1.90
2018-03-02T15:50:02.310Z,-2.00
2018-03-02T15:52:30.484Z,-1.90
2018-03-02T15:54:58.633Z,-1.90
2018-03-02T15:57:28.610Z,-1.90
2018-03-02T15:59:56.753Z,-2.00
2018-03-02T16:02:27.709Z,-1.90
2018-03-02T16:04:56.608Z,-1.90
2018-03-02T16:07:24.756Z,-1.90
2018-03-02T16:09:52.881Z,-2.00
2018-03-02T16:12:21.037Z,-2.00
2018-03-02T16:14:49.149Z,-2.10
2018-03-02T16:17:17.305Z,-2.10
2018-03-02T16:19:46.256Z,-2.20
2018-03-02T16:22:15.295Z,-2.20
2018-03-02T16:24:43.984Z,-2.30
2018-03-02T16:27:13.366Z,-2.30
2018-03-02T16:29:41.823Z,-2.30
2018-03-02T16:32:10.522Z,-2.30
2018-03-02T16:34:39.797Z,-2.30
2018-03-02T16:37:07.954Z,-2.30
2018-03-02T16:39:36.099Z,-2.20
2018-03-02T16:42:04.388Z,-2.30
2018-03-02T16:44:32.537Z,-2.30
2018-03-02T16:47:00.691Z,-2.40
2018-03-02T16:49:28.813Z,-2.40
2018-03-02T16:51:56.948Z,-2.40
2018-03-02T16:54:25.119Z,-2.40
2018-03-02T16:56:53.260Z,-2.40
2018-03-02T16:59:21.370Z,-2.40
2018-03-02T17:01:49.526Z,-2.50
2018-03-02T17:04:17.667Z,-2.50
2018-03-02T17:06:46.606Z,-2.50
2018-03-02T17:09:14.737Z,-2.50
2018-03-02T17:11:42.947Z,-2.60
2018-03-02T17:14:11.248Z,-2.70
2018-03-02T17:16:40.075Z,-2.70
2018-03-02T17:19:08.213Z,-2.70
2018-03-02T17:21:36.427Z,-2.80
2018-03-02T17:24:04.553Z,-2.80
2018-03-02T17:26:32.708Z,-2.90
2018-03-02T17:29:03.385Z,-2.90
2018-03-02T17:31:31.536Z,-2.90
2018-03-02T17:33:59.678Z,-2.90
2018-03-02T17:36:29.289Z,-3.00
2018-03-02T17:39:00.610Z,-2.90
2018-03-02T17:41:28.748Z,-3.00
2018-03-02T17:43:56.864Z,-2.90
2018-03-02T17:46:25.028Z,-3.00
2018-03-02T17:48:53.164Z,-3.00
2018-03-02T17:51:21.296Z,-3.00
2018-03-02T17:53:50.191Z,-3.10
2018-03-02T17:56:18.760Z,-3.10
2018-03-02T17:58:47.728Z,-3.10
2018-03-02T18:01:15.880Z,-3.10
2018-03-02T18:03:44.445Z,-3.00
2018-03-02T18:06:12.578Z,-3.10
2018-03-02T18:08:40.722Z,-3.20
2018-03-02T18:11:08.933Z,-3.20
2018-03-02T18:13:37.016Z,-3.30
2018-03-02T18:16:05.922Z,-3.40
2018-03-02T18:18:34.402Z,-3.40
2018-03-02T18:21:02.537Z,-3.40
2018-03-02T18:23:30.693Z,-3.30
2018-03-02T18:25:58.816Z,-3.30
2018-03-02T18:28:26.957Z,-3.40
2018-03-02T18:30:55.081Z,-3.30
2018-03-02T18:33:23.239Z,-3.30
2018-03-02T18:35:52.128Z,-3.40
2018-03-02T18:38:20.284Z,-3.40
2018-03-02T18:40:48.426Z,-3.40
2018-03-02T18:43:16.564Z,-3.40
2018-03-02T18:45:44.852Z,-3.40
2018-03-02T18:48:13.000Z,-3.50
2018-03-02T18:50:41.133Z,-3.50
2018-03-02T18:53:09.287Z,-3.50
2018-03-02T18:55:37.419Z,-3.50
2018-03-02T18:58:05.561Z,-3.50
2018-03-02T19:00:33.680Z,-3.60
2018-03-02T19:03:01.829Z,-3.60
2018-03-02T19:05:30.714Z,-3.60
2018-03-02T19:07:59.634Z,-3.60
2018-03-02T19:10:27.760Z,-3.60
2018-03-02T19:12:55.906Z,-3.60
2018-03-02T19:15:24.027Z,-3.60
2018-03-02T19:17:52.965Z,-3.70
2018-03-02T19:20:21.085Z,-3.80
2018-03-02T19:22:49.225Z,-3.70
2018-03-02T19:25:17.349Z,-3.70
2018-03-02T19:27:45.521Z,-3.70
2018-03-02T19:30:14.408Z,-3.70
2018-03-02T19:32:43.322Z,-3.70
2018-03-02T19:35:11.468Z,-3.70
2018-03-02T19:37:40.374Z,-3.80
2018-03-02T19:40:08.495Z,-3.80
2018-03-02T19:42:36.642Z,-3.80
2018-03-02T19:45:04.776Z,-3.80
2018-03-02T19:47:33.704Z,-3.90
2018-03-02T19:50:01.850Z,-3.90
2018-03-02T19:52:30.034Z,-4.00
2018-03-02T19:54:58.164Z,-3.90
2018-03-02T19:57:26.331Z,-4.00
2018-03-02T19:59:54.470Z,-4.00
2018-03-02T20:02:22.610Z,-3.90
2018-03-02T20:04:51.514Z,-4.00
2018-03-02T20:07:20.424Z,-4.00
2018-03-02T20:09:48.572Z,-4.00
2018-03-02T20:12:17.493Z,-4.00
2018-03-02T20:14:45.623Z,-4.00
2018-03-02T20:17:13.741Z,-4.00
2018-03-02T20:19:41.914Z,-4.00
2018-03-02T20:22:11.590Z,-4.10
2018-03-02T20:24:40.508Z,-4.10
2018-03-02T20:27:08.657Z,-4.20
2018-03-02T20:29:38.281Z,-4.20
2018-03-02T20:32:07.871Z,-4.20
2018-03-02T20:34:36.880Z,-4.30
2018-03-02T20:37:05.767Z,-4.30
2018-03-02T20:39:34.938Z,-4.30
2018-03-02T20:42:04.562Z,-4.40
2018-03-02T20:44:32.734Z,-4.50
2018-03-02T20:47:01.733Z,-4.40
2018-03-02T20:49:30.677Z,-4.40
2018-03-02T20:51:58.875Z,-4.40
2018-03-02T20:54:27.386Z,-4.40
2018-03-02T20:56:56.375Z,-4.50
2018-03-02T20:59:25.890Z,-4.50
2018-03-02T21:01:56.095Z,-4.50
2018-03-02T21:04:26.175Z,-4.50
2018-03-02T21:06:54.293Z,-4.50
2018-03-02T21:09:23.205Z,-4.40
2018-03-02T21:11:51.326Z,-4.40
2018-03-02T21:14:19.485Z,-4.40
2018-03-02T21:16:48.027Z,-4.40
2018-03-02T21:19:16.424Z,-4.50
2018-03-02T21:21:44.572Z,-4.50
2018-03-02T21:24:13.485Z,-4.40
2018-03-02T21:26:42.979Z,-4.50
2018-03-02T21:29:11.141Z,-4.50
2018-03-02T21:31:40.029Z,-4.80
2018-03-02T21:34:09.071Z,-4.80
2018-03-02T21:36:37.213Z,-4.80
2018-03-02T21:39:05.496Z,-4.80
2018-03-02T21:41:33.730Z,-5.00
2018-03-02T21:44:01.915Z,-5.10
2018-03-02T21:46:30.100Z,-5.20
2018-03-02T21:48:58.310Z,-5.20
2018-03-02T21:51:26.450Z,-5.20
2018-03-02T21:53:54.659Z,-5.20
2018-03-02T21:56:23.769Z,-5.10
2018-03-02T21:58:52.732Z,-5.00
2018-03-02T22:01:20.858Z,-5.10
2018-03-02T22:03:49.077Z,-5.10
2018-03-02T22:06:17.190Z,-5.20
2018-03-02T22:08:45.357Z,-5.10
2018-03-02T22:11:13.575Z,-5.20
2018-03-02T22:13:41.715Z,-5.20
2018-03-02T22:16:09.846Z,-5.10
2018-03-02T22:18:38.010Z,-5.20
2018-03-02T22:21:06.913Z,-5.20
2018-03-02T22:23:35.049Z,-5.20
2018-03-02T22:26:03.160Z,-5.20
2018-03-02T22:28:32.513Z,-5.20
2018-03-02T22:31:01.154Z,-5.30
2018-03-02T22:33:29.693Z,-5.40
2018-03-02T22:35:57.814Z,-5.40
2018-03-02T22:38:25.957Z,-5.40
2018-03-02T22:40:54.853Z,-5.60
2018-03-02T22:43:23.757Z,-5.70
2018-03-02T22:45:53.212Z,-5.70
2018-03-02T22:48:22.813Z,-5.60
2018-03-02T22:50:50.942Z,-5.60
2018-03-02T22:53:19.083Z,-5.60
2018-03-02T22:55:48.694Z,-5.50
2018-03-02T22:58:17.611Z,-5.60
2018-03-02T23:00:45.761Z,-5.60
2018-03-02T23:03:13.906Z,-5.60
2018-03-02T23:05:42.045Z,-5.60
2018-03-02T23:08:10.170Z,-5.60
2018-03-02T23:10:38.318Z,-5.60
2018-03-02T23:13:06.446Z,-5.60
2018-03-02T23:15:35.389Z,-5.70
2018-03-02T23:18:03.500Z,-5.70
2018-03-02T23:20:32.419Z,-5.60
2018-03-02T23:23:00.537Z,-5.60
2018-03-02T23:25:28.697Z,-5.70
2018-03-02T23:27:58.107Z,-5.70
2018-03-02T23:30:26.245Z,-5.60
2018-03-02T23:32:54.387Z,-5.70
2018-03-02T23:35:23.754Z,-5.90
2018-03-02T23:37:51.913Z,-5.90
2018-03-02T23:40:22.118Z,-5.90
2018-03-02T23:42:50.241Z,-6.00
2018-03-02T23:45:18.411Z,-6.00
2018-03-02T23:47:46.523Z,-6.00
2018-03-02T23:50:14.678Z,-6.10
2018-03-02T23:52:44.149Z,-6.10
2018-03-02T23:55:12.332Z,-6.10
2018-03-02T23:57:40.463Z,-6.10
